sensor_id;sensor_type;location;lat;lon;timestamp;temperature;humidity
77829;DHT22;67019;51.034;3.728;2024-02-14T00:00:45;9.00;99.90
77829;DHT22;67019;51.034;3.728;2024-02-14T00:10:35;9.10;99.90
77829;DHT22;67019;51.034;3.728;2024-02-14T00:25:23;8.90;99.90
77829;DHT22;67019;51.034;3.728;2024-02-14T01:07:32;8.90;99.90
77829;DHT22;67019;51.034;3.728;2024-02-14T01:10:00;9.40;99.90
77829;DHT22;67019;51.034;3.728;2024-02-14T01:14:56;9.40;99.90
77829;DHT22;67019;51.034;3.728;2024-02-14T01:17:23;9.50;99.90
77829;DHT22;67019;51.034;3.728;2024-02-14T01:19:51;9.40;99.90
77829;DHT22;67019;51.034;3.728;2024-02-14T01:22:19;9.50;99.90
77829;DHT22;67019;51.034;3.728;2024-02-14T01:24:48;9.30;99.90
77829;DHT22;67019;51.034;3.728;2024-02-14T01:27:15;9.50;99.90
77829;DHT22;67019;51.034;3.728;2024-02-14T01:29:43;9.60;99.90
77829;DHT22;67019;51.034;3.728;2024-02-14T01:34:38;9.10;99.90
77829;DHT22;67019;51.034;3.728;2024-02-14T01:37:06;9.20;99.90
77829;DHT22;67019;51.034;3.728;2024-02-14T01:42:01;9.40;99.90
77829;DHT22;67019;51.034;3.728;2024-02-14T01:44:30;9.00;99.90
77829;DHT22;67019;51.034;3.728;2024-02-14T01:46:58;9.40;99.90
77829;DHT22;67019;51.034;3.728;2024-02-14T01:49:26;9.30;99.90
77829;DHT22;67019;51.034;3.728;2024-02-14T01:51:57;9.50;99.90
77829;DHT22;67019;51.034;3.728;2024-02-14T01:54:26;9.50;99.90
77829;DHT22;67019;51.034;3.728;2024-02-14T01:56:55;9.30;99.90
77829;DHT22;67019;51.034;3.728;2024-02-14T01:59:24;9.30;99.90
77829;DHT22;67019;51.034;3.728;2024-02-14T02:01:52;9.10;99.90
77829;DHT22;67019;51.034;3.728;2024-02-14T02:04:21;9.50;99.90
77829;DHT22;67019;51.034;3.728;2024-02-14T02:06:49;9.60;99.90
77829;DHT22;67019;51.034;3.728;2024-02-14T02:09:17;9.60;99.90
77829;DHT22;67019;51.034;3.728;2024-02-14T02:16:45;9.40;99.90
77829;DHT22;67019;51.034;3.728;2024-02-14T02:19:13;9.40;99.90
77829;DHT22;67019;51.034;3.728;2024-02-14T02:21:42;9.40;99.90
77829;DHT22;67019;51.034;3.728;2024-02-14T02:24:11;9.50;99.90
77829;DHT22;67019;51.034;3.728;2024-02-14T02:26:39;9.60;99.90
77829;DHT22;67019;51.034;3.728;2024-02-14T02:29:07;9.20;99.90
77829;DHT22;67019;51.034;3.728;2024-02-14T02:31:35;9.10;99.90
77829;DHT22;67019;51.034;3.728;2024-02-14T02:34:04;9.10;99.90
77829;DHT22;67019;51.034;3.728;2024-02-14T02:36:32;9.00;99.90
77829;DHT22;67019;51.034;3.728;2024-02-14T02:38:59;9.10;99.90
77829;DHT22;67019;51.034;3.728;2024-02-14T02:41:27;9.30;99.90
77829;DHT22;67019;51.034;3.728;2024-02-14T02:43:55;9.50;99.90
77829;DHT22;67019;51.034;3.728;2024-02-14T02:46:22;9.30;99.90
77829;DHT22;67019;51.034;3.728;2024-02-14T02:48:52;9.50;99.90
77829;DHT22;67019;51.034;3.728;2024-02-14T02:51:22;9.30;99.90
77829;DHT22;67019;51.034;3.728;2024-02-14T02:53:50;9.40;99.90
77829;DHT22;67019;51.034;3.728;2024-02-14T02:56:19;9.70;99.90
77829;DHT22;67019;51.034;3.728;2024-02-14T03:03:43;9.40;99.90
77829;DHT22;67019;51.034;3.728;2024-02-14T03:06:11;9.60;99.90
77829;DHT22;67019;51.034;3.728;2024-02-14T03:08:40;9.60;99.90
77829;DHT22;67019;51.034;3.728;2024-02-14T03:11:09;9.50;99.90
77829;DHT22;67019;51.034;3.728;2024-02-14T03:13:36;9.60;99.90
77829;DHT22;67019;51.034;3.728;2024-02-14T03:18:33;9.60;99.90
77829;DHT22;67019;51.034;3.728;2024-02-14T03:21:01;9.40;99.90
77829;DHT22;67019;51.034;3.728;2024-02-14T03:23:28;9.50;99.90
77829;DHT22;67019;51.034;3.728;2024-02-14T03:28:23;9.60;99.90
77829;DHT22;67019;51.034;3.728;2024-02-14T03:30:51;9.70;99.90
77829;DHT22;67019;51.034;3.728;2024-02-14T03:33:19;9.50;99.90
77829;DHT22;67019;51.034;3.728;2024-02-14T03:35:46;9.70;99.90
77829;DHT22;67019;51.034;3.728;2024-02-14T03:38:29;9.30;99.90
77829;DHT22;67019;51.034;3.728;2024-02-14T03:40:54;9.60;99.90
77829;DHT22;67019;51.034;3.728;2024-02-14T03:43:21;9.70;99.90
77829;DHT22;67019;51.034;3.728;2024-02-14T03:45:50;9.40;99.90
77829;DHT22;67019;51.034;3.728;2024-02-14T03:48:21;9.70;99.90
77829;DHT22;67019;51.034;3.728;2024-02-14T03:50:49;9.60;99.90
77829;DHT22;67019;51.034;3.728;2024-02-14T03:53:16;9.60;99.90
77829;DHT22;67019;51.034;3.728;2024-02-14T03:55:44;9.70;99.90
77829;DHT22;67019;51.034;3.728;2024-02-14T03:58:11;9.70;99.90
77829;DHT22;67019;51.034;3.728;2024-02-14T04:03:13;9.50;99.90
77829;DHT22;67019;51.034;3.728;2024-02-14T04:05:40;9.50;99.90
77829;DHT22;67019;51.034;3.728;2024-02-14T04:08:08;9.80;99.90
77829;DHT22;67019;51.034;3.728;2024-02-14T04:10:37;9.60;99.90
77829;DHT22;67019;51.034;3.728;2024-02-14T04:13:06;9.50;99.90
77829;DHT22;67019;51.034;3.728;2024-02-14T04:15:36;9.80;99.90
77829;DHT22;67019;51.034;3.728;2024-02-14T04:18:03;9.70;99.90
77829;DHT22;67019;51.034;3.728;2024-02-14T04:20:32;9.70;99.90
77829;DHT22;67019;51.034;3.728;2024-02-14T04:23:00;9.90;99.90
77829;DHT22;67019;51.034;3.728;2024-02-14T04:25:29;9.90;99.90
77829;DHT22;67019;51.034;3.728;2024-02-14T04:27:56;9.80;99.90
77829;DHT22;67019;51.034;3.728;2024-02-14T04:30:26;10.10;99.90
77829;DHT22;67019;51.034;3.728;2024-02-14T04:32:53;9.90;99.90
77829;DHT22;67019;51.034;3.728;2024-02-14T04:35:21;9.70;99.90
77829;DHT22;67019;51.034;3.728;2024-02-14T04:37:49;9.70;99.90
77829;DHT22;67019;51.034;3.728;2024-02-14T04:40:18;10.00;99.90
77829;DHT22;67019;51.034;3.728;2024-02-14T04:42:46;9.80;99.90
77829;DHT22;67019;51.034;3.728;2024-02-14T04:45:14;9.80;99.90
77829;DHT22;67019;51.034;3.728;2024-02-14T04:47:42;10.00;99.90
77829;DHT22;67019;51.034;3.728;2024-02-14T04:52:38;10.00;99.90
77829;DHT22;67019;51.034;3.728;2024-02-14T04:55:06;10.00;99.90
77829;DHT22;67019;51.034;3.728;2024-02-14T04:57:34;9.90;99.90
77829;DHT22;67019;51.034;3.728;2024-02-14T05:00:05;9.80;99.90
77829;DHT22;67019;51.034;3.728;2024-02-14T05:02:34;9.70;99.90
77829;DHT22;67019;51.034;3.728;2024-02-14T05:05:05;10.30;99.90
77829;DHT22;67019;51.034;3.728;2024-02-14T05:07:34;10.10;99.90
77829;DHT22;67019;51.034;3.728;2024-02-14T05:10:02;10.20;99.90
77829;DHT22;67019;51.034;3.728;2024-02-14T05:12:29;9.90;99.90
77829;DHT22;67019;51.034;3.728;2024-02-14T05:14:59;10.20;99.90
77829;DHT22;67019;51.034;3.728;2024-02-14T05:17:26;10.00;99.90
77829;DHT22;67019;51.034;3.728;2024-02-14T05:19:54;10.10;99.90
77829;DHT22;67019;51.034;3.728;2024-02-14T05:22:22;10.10;99.90
77829;DHT22;67019;51.034;3.728;2024-02-14T05:24:50;10.30;99.90
77829;DHT22;67019;51.034;3.728;2024-02-14T05:27:17;10.20;99.90
77829;DHT22;67019;51.034;3.728;2024-02-14T05:29:45;10.20;99.90
77829;DHT22;67019;51.034;3.728;2024-02-14T05:32:12;10.10;99.90
77829;DHT22;67019;51.034;3.728;2024-02-14T05:34:40;10.00;99.90
77829;DHT22;67019;51.034;3.728;2024-02-14T05:37:08;9.90;99.90
77829;DHT22;67019;51.034;3.728;2024-02-14T05:39:35;10.00;99.90
77829;DHT22;67019;51.034;3.728;2024-02-14T05:42:03;10.20;99.90
77829;DHT22;67019;51.034;3.728;2024-02-14T05:44:32;10.00;99.90
77829;DHT22;67019;51.034;3.728;2024-02-14T05:47:01;10.10;99.90
77829;DHT22;67019;51.034;3.728;2024-02-14T05:51:56;10.00;99.90
77829;DHT22;67019;51.034;3.728;2024-02-14T05:54:23;10.10;99.90
77829;DHT22;67019;51.034;3.728;2024-02-14T05:56:51;10.40;99.90
77829;DHT22;67019;51.034;3.728;2024-02-14T05:59:19;10.40;99.90
77829;DHT22;67019;51.034;3.728;2024-02-14T06:04:15;10.20;99.90
77829;DHT22;67019;51.034;3.728;2024-02-14T06:06:42;10.60;99.90
77829;DHT22;67019;51.034;3.728;2024-02-14T06:09:10;10.50;99.90
77829;DHT22;67019;51.034;3.728;2024-02-14T06:11:38;10.40;99.90
77829;DHT22;67019;51.034;3.728;2024-02-14T06:14:06;10.10;99.90
77829;DHT22;67019;51.034;3.728;2024-02-14T06:16:38;10.30;99.90
77829;DHT22;67019;51.034;3.728;2024-02-14T06:19:05;10.20;99.90
77829;DHT22;67019;51.034;3.728;2024-02-14T06:21:33;10.40;99.90
77829;DHT22;67019;51.034;3.728;2024-02-14T06:24:02;10.40;99.90
77829;DHT22;67019;51.034;3.728;2024-02-14T06:26:31;10.40;99.90
77829;DHT22;67019;51.034;3.728;2024-02-14T06:28:59;10.50;99.90
77829;DHT22;67019;51.034;3.728;2024-02-14T06:31:27;10.40;99.90
77829;DHT22;67019;51.034;3.728;2024-02-14T06:33:55;10.10;99.90
77829;DHT22;67019;51.034;3.728;2024-02-14T06:36:22;10.60;99.90
77829;DHT22;67019;51.034;3.728;2024-02-14T06:38:50;10.50;99.90
77829;DHT22;67019;51.034;3.728;2024-02-14T06:41:18;10.50;99.90
77829;DHT22;67019;51.034;3.728;2024-02-14T06:43:47;10.70;99.90
77829;DHT22;67019;51.034;3.728;2024-02-14T06:46:14;10.40;99.90
77829;DHT22;67019;51.034;3.728;2024-02-14T06:48:42;10.50;99.90
77829;DHT22;67019;51.034;3.728;2024-02-14T06:51:09;10.40;99.90
77829;DHT22;67019;51.034;3.728;2024-02-14T06:53:39;10.40;99.90
77829;DHT22;67019;51.034;3.728;2024-02-14T06:56:06;10.40;99.90
77829;DHT22;67019;51.034;3.728;2024-02-14T06:58:34;10.50;99.90
77829;DHT22;67019;51.034;3.728;2024-02-14T07:01:02;10.50;99.90
77829;DHT22;67019;51.034;3.728;2024-02-14T07:03:30;10.50;99.90
77829;DHT22;67019;51.034;3.728;2024-02-14T07:05:58;10.50;99.90
77829;DHT22;67019;51.034;3.728;2024-02-14T07:08:26;10.30;99.90
77829;DHT22;67019;51.034;3.728;2024-02-14T07:10:55;10.60;99.90
77829;DHT22;67019;51.034;3.728;2024-02-14T07:13:23;10.40;99.90
77829;DHT22;67019;51.034;3.728;2024-02-14T07:15:50;10.30;99.90
77829;DHT22;67019;51.034;3.728;2024-02-14T07:18:18;10.30;99.90
77829;DHT22;67019;51.034;3.728;2024-02-14T07:20:46;10.30;99.90
77829;DHT22;67019;51.034;3.728;2024-02-14T07:23:14;10.30;99.90
77829;DHT22;67019;51.034;3.728;2024-02-14T07:25:42;10.30;99.90
77829;DHT22;67019;51.034;3.728;2024-02-14T07:30:37;10.50;99.90
77829;DHT22;67019;51.034;3.728;2024-02-14T07:33:05;10.40;99.90
77829;DHT22;67019;51.034;3.728;2024-02-14T07:35:32;10.50;99.90
77829;DHT22;67019;51.034;3.728;2024-02-14T07:38:00;10.70;99.90
77829;DHT22;67019;51.034;3.728;2024-02-14T07:40:27;10.50;99.90
77829;DHT22;67019;51.034;3.728;2024-02-14T07:42:57;10.30;99.90
77829;DHT22;67019;51.034;3.728;2024-02-14T07:45:25;10.10;99.90
77829;DHT22;67019;51.034;3.728;2024-02-14T07:47:53;10.40;99.90
77829;DHT22;67019;51.034;3.728;2024-02-14T07:50:20;10.50;99.90
77829;DHT22;67019;51.034;3.728;2024-02-14T07:55:17;10.30;99.90
77829;DHT22;67019;51.034;3.728;2024-02-14T07:57:47;10.50;99.90
77829;DHT22;67019;51.034;3.728;2024-02-14T08:00:15;10.40;99.90
77829;DHT22;67019;51.034;3.728;2024-02-14T08:02:44;10.50;99.90
77829;DHT22;67019;51.034;3.728;2024-02-14T08:05:12;10.60;99.90
77829;DHT22;67019;51.034;3.728;2024-02-14T08:07:39;10.40;99.90
77829;DHT22;67019;51.034;3.728;2024-02-14T08:10:07;10.30;99.90
77829;DHT22;67019;51.034;3.728;2024-02-14T08:12:35;10.40;99.90
77829;DHT22;67019;51.034;3.728;2024-02-14T08:15:03;10.60;99.90
77829;DHT22;67019;51.034;3.728;2024-02-14T08:17:32;10.60;99.90
77829;DHT22;67019;51.034;3.728;2024-02-14T08:20:04;10.50;99.90
77829;DHT22;67019;51.034;3.728;2024-02-14T08:22:39;10.60;99.90
77829;DHT22;67019;51.034;3.728;2024-02-14T08:25:07;10.70;99.90
77829;DHT22;67019;51.034;3.728;2024-02-14T08:27:35;10.70;99.90
77829;DHT22;67019;51.034;3.728;2024-02-14T08:30:04;10.80;99.90
77829;DHT22;67019;51.034;3.728;2024-02-14T08:32:34;10.60;99.90
77829;DHT22;67019;51.034;3.728;2024-02-14T08:35:02;10.80;99.90
77829;DHT22;67019;51.034;3.728;2024-02-14T08:37:30;10.70;99.90
77829;DHT22;67019;51.034;3.728;2024-02-14T08:39:59;10.60;99.90
77829;DHT22;67019;51.034;3.728;2024-02-14T08:42:26;10.70;99.90
77829;DHT22;67019;51.034;3.728;2024-02-14T08:44:54;10.50;99.90
77829;DHT22;67019;51.034;3.728;2024-02-14T08:47:21;10.80;99.90
77829;DHT22;67019;51.034;3.728;2024-02-14T08:49:49;10.80;99.90
77829;DHT22;67019;51.034;3.728;2024-02-14T08:52:17;10.70;99.90
77829;DHT22;67019;51.034;3.728;2024-02-14T08:54:45;10.60;99.90
77829;DHT22;67019;51.034;3.728;2024-02-14T08:57:12;10.60;99.90
77829;DHT22;67019;51.034;3.728;2024-02-14T08:59:41;10.60;99.90
77829;DHT22;67019;51.034;3.728;2024-02-14T09:02:10;10.90;99.90
77829;DHT22;67019;51.034;3.728;2024-02-14T09:04:38;10.70;99.90
77829;DHT22;67019;51.034;3.728;2024-02-14T09:07:07;10.80;99.90
77829;DHT22;67019;51.034;3.728;2024-02-14T09:09:35;11.00;99.90
77829;DHT22;67019;51.034;3.728;2024-02-14T09:12:04;10.70;99.90
77829;DHT22;67019;51.034;3.728;2024-02-14T09:14:32;10.70;99.90
77829;DHT22;67019;51.034;3.728;2024-02-14T09:17:00;10.80;99.90
77829;DHT22;67019;51.034;3.728;2024-02-14T09:19:28;10.70;99.90
77829;DHT22;67019;51.034;3.728;2024-02-14T09:21:56;11.10;99.90
77829;DHT22;67019;51.034;3.728;2024-02-14T09:24:24;10.80;99.90
77829;DHT22;67019;51.034;3.728;2024-02-14T09:26:51;10.70;99.90
77829;DHT22;67019;51.034;3.728;2024-02-14T09:29:19;10.80;99.90
77829;DHT22;67019;51.034;3.728;2024-02-14T09:31:47;10.80;99.90
77829;DHT22;67019;51.034;3.728;2024-02-14T09:34:15;10.70;99.90
77829;DHT22;67019;51.034;3.728;2024-02-14T09:36:50;10.70;99.90
77829;DHT22;67019;51.034;3.728;2024-02-14T09:39:16;10.50;99.90
77829;DHT22;67019;51.034;3.728;2024-02-14T09:41:46;10.80;99.90
77829;DHT22;67019;51.034;3.728;2024-02-14T09:44:14;10.80;99.90
77829;DHT22;67019;51.034;3.728;2024-02-14T09:46:41;10.80;99.90
77829;DHT22;67019;51.034;3.728;2024-02-14T09:49:10;10.80;99.90
77829;DHT22;67019;51.034;3.728;2024-02-14T09:51:38;10.70;99.90
77829;DHT22;67019;51.034;3.728;2024-02-14T09:54:07;10.80;99.90
77829;DHT22;67019;51.034;3.728;2024-02-14T09:59:03;10.80;99.90
77829;DHT22;67019;51.034;3.728;2024-02-14T10:04:00;10.80;99.90
77829;DHT22;67019;51.034;3.728;2024-02-14T10:06:28;10.90;99.90
77829;DHT22;67019;51.034;3.728;2024-02-14T10:08:55;10.90;99.90
77829;DHT22;67019;51.034;3.728;2024-02-14T10:11:23;11.30;99.90
77829;DHT22;67019;51.034;3.728;2024-02-14T10:13:54;11.10;99.90
77829;DHT22;67019;51.034;3.728;2024-02-14T10:16:25;10.90;99.90
77829;DHT22;67019;51.034;3.728;2024-02-14T10:18:54;11.10;99.90
77829;DHT22;67019;51.034;3.728;2024-02-14T10:21:22;10.90;99.90
77829;DHT22;67019;51.034;3.728;2024-02-14T10:23:52;11.20;99.90
77829;DHT22;67019;51.034;3.728;2024-02-14T10:26:22;11.00;99.90
77829;DHT22;67019;51.034;3.728;2024-02-14T10:28:50;10.90;99.90
77829;DHT22;67019;51.034;3.728;2024-02-14T10:31:18;11.00;99.90
77829;DHT22;67019;51.034;3.728;2024-02-14T10:33:46;11.00;99.90
77829;DHT22;67019;51.034;3.728;2024-02-14T10:36:16;11.10;99.90
77829;DHT22;67019;51.034;3.728;2024-02-14T10:38:43;11.10;99.90
77829;DHT22;67019;51.034;3.728;2024-02-14T10:41:13;11.00;99.90
77829;DHT22;67019;51.034;3.728;2024-02-14T10:43:41;11.20;99.90
77829;DHT22;67019;51.034;3.728;2024-02-14T10:46:22;11.40;99.90
77829;DHT22;67019;51.034;3.728;2024-02-14T10:48:58;11.00;99.90
77829;DHT22;67019;51.034;3.728;2024-02-14T10:51:26;11.10;99.90
77829;DHT22;67019;51.034;3.728;2024-02-14T10:53:55;11.30;99.90
77829;DHT22;67019;51.034;3.728;2024-02-14T10:56:27;11.00;99.90
77829;DHT22;67019;51.034;3.728;2024-02-14T10:58:57;11.00;99.90
77829;DHT22;67019;51.034;3.728;2024-02-14T11:01:28;11.20;99.90
77829;DHT22;67019;51.034;3.728;2024-02-14T11:03:59;11.00;99.90
77829;DHT22;67019;51.034;3.728;2024-02-14T11:06:27;11.10;99.90
77829;DHT22;67019;51.034;3.728;2024-02-14T11:09:02;11.30;99.90
77829;DHT22;67019;51.034;3.728;2024-02-14T11:11:34;11.50;99.90
77829;DHT22;67019;51.034;3.728;2024-02-14T11:14:02;11.50;99.90
77829;DHT22;67019;51.034;3.728;2024-02-14T11:16:32;11.50;99.90
77829;DHT22;67019;51.034;3.728;2024-02-14T11:19:10;11.50;99.90
77829;DHT22;67019;51.034;3.728;2024-02-14T11:21:42;11.40;99.90
77829;DHT22;67019;51.034;3.728;2024-02-14T11:24:12;11.50;99.90
77829;DHT22;67019;51.034;3.728;2024-02-14T11:26:48;11.70;99.90
77829;DHT22;67019;51.034;3.728;2024-02-14T11:29:28;11.20;99.90
77829;DHT22;67019;51.034;3.728;2024-02-14T11:31:57;11.60;99.90
77829;DHT22;67019;51.034;3.728;2024-02-14T11:34:19;11.80;99.90
77829;DHT22;67019;51.034;3.728;2024-02-14T11:36:47;11.80;99.90
77829;DHT22;67019;51.034;3.728;2024-02-14T11:39:16;11.90;99.90
77829;DHT22;67019;51.034;3.728;2024-02-14T11:41:43;11.90;99.90
77829;DHT22;67019;51.034;3.728;2024-02-14T11:44:12;11.80;99.90
77829;DHT22;67019;51.034;3.728;2024-02-14T11:46:41;11.90;99.90
77829;DHT22;67019;51.034;3.728;2024-02-14T11:49:08;12.00;99.90
77829;DHT22;67019;51.034;3.728;2024-02-14T11:51:36;11.90;99.90
77829;DHT22;67019;51.034;3.728;2024-02-14T11:54:05;12.00;99.90
77829;DHT22;67019;51.034;3.728;2024-02-14T11:56:39;11.70;99.90
77829;DHT22;67019;51.034;3.728;2024-02-14T11:59:07;11.80;99.90
77829;DHT22;67019;51.034;3.728;2024-02-14T12:01:39;11.90;99.90
77829;DHT22;67019;51.034;3.728;2024-02-14T12:04:08;12.00;99.90
77829;DHT22;67019;51.034;3.728;2024-02-14T12:06:38;12.10;99.90
77829;DHT22;67019;51.034;3.728;2024-02-14T12:09:08;12.20;99.90
77829;DHT22;67019;51.034;3.728;2024-02-14T12:11:40;12.20;99.90
77829;DHT22;67019;51.034;3.728;2024-02-14T12:14:10;12.10;99.90
77829;DHT22;67019;51.034;3.728;2024-02-14T12:16:38;11.80;99.90
77829;DHT22;67019;51.034;3.728;2024-02-14T12:19:15;12.00;99.90
77829;DHT22;67019;51.034;3.728;2024-02-14T12:21:43;12.00;99.90
77829;DHT22;67019;51.034;3.728;2024-02-14T12:24:12;12.20;99.90
77829;DHT22;67019;51.034;3.728;2024-02-14T12:26:41;12.20;99.90
77829;DHT22;67019;51.034;3.728;2024-02-14T12:29:11;12.20;99.90
77829;DHT22;67019;51.034;3.728;2024-02-14T12:31:41;12.00;99.90
77829;DHT22;67019;51.034;3.728;2024-02-14T12:34:11;12.10;99.90
77829;DHT22;67019;51.034;3.728;2024-02-14T12:36:39;12.20;99.90
77829;DHT22;67019;51.034;3.728;2024-02-14T12:39:06;12.20;99.90
77829;DHT22;67019;51.034;3.728;2024-02-14T12:41:36;12.30;99.90
77829;DHT22;67019;51.034;3.728;2024-02-14T12:44:05;12.20;99.90
77829;DHT22;67019;51.034;3.728;2024-02-14T12:46:33;12.20;99.90
77829;DHT22;67019;51.034;3.728;2024-02-14T12:49:03;12.00;99.90
77829;DHT22;67019;51.034;3.728;2024-02-14T12:51:31;12.10;99.90
77829;DHT22;67019;51.034;3.728;2024-02-14T12:53:59;12.10;99.90
77829;DHT22;67019;51.034;3.728;2024-02-14T12:56:27;12.10;99.90
77829;DHT22;67019;51.034;3.728;2024-02-14T12:58:54;12.00;99.90
77829;DHT22;67019;51.034;3.728;2024-02-14T13:01:22;12.00;99.90
77829;DHT22;67019;51.034;3.728;2024-02-14T13:03:49;12.10;99.90
77829;DHT22;67019;51.034;3.728;2024-02-14T13:06:17;12.00;99.90
77829;DHT22;67019;51.034;3.728;2024-02-14T13:08:46;12.00;99.90
77829;DHT22;67019;51.034;3.728;2024-02-14T13:11:15;11.90;99.90
77829;DHT22;67019;51.034;3.728;2024-02-14T13:13:44;12.00;99.90
77829;DHT22;67019;51.034;3.728;2024-02-14T13:16:12;12.00;99.90
77829;DHT22;67019;51.034;3.728;2024-02-14T13:18:40;11.90;99.90
77829;DHT22;67019;51.034;3.728;2024-02-14T13:21:07;12.20;99.90
77829;DHT22;67019;51.034;3.728;2024-02-14T13:23:36;12.30;99.90
77829;DHT22;67019;51.034;3.728;2024-02-14T13:26:03;12.00;99.90
77829;DHT22;67019;51.034;3.728;2024-02-14T13:28:31;12.20;99.90
77829;DHT22;67019;51.034;3.728;2024-02-14T13:30:59;12.00;99.90
77829;DHT22;67019;51.034;3.728;2024-02-14T13:33:27;12.00;99.90
77829;DHT22;67019;51.034;3.728;2024-02-14T13:35:55;12.00;99.90
77829;DHT22;67019;51.034;3.728;2024-02-14T13:38:22;12.20;99.90
77829;DHT22;67019;51.034;3.728;2024-02-14T13:40:50;12.00;99.90
77829;DHT22;67019;51.034;3.728;2024-02-14T13:43:18;11.90;99.90
77829;DHT22;67019;51.034;3.728;2024-02-14T13:45:46;12.00;99.90
77829;DHT22;67019;51.034;3.728;2024-02-14T13:48:15;12.00;99.90
77829;DHT22;67019;51.034;3.728;2024-02-14T13:50:43;12.10;99.90
77829;DHT22;67019;51.034;3.728;2024-02-14T13:53:10;12.20;99.90
77829;DHT22;67019;51.034;3.728;2024-02-14T13:55:38;12.30;99.90
77829;DHT22;67019;51.034;3.728;2024-02-14T13:58:06;12.20;99.90
77829;DHT22;67019;51.034;3.728;2024-02-14T14:00:35;12.20;99.90
77829;DHT22;67019;51.034;3.728;2024-02-14T14:03:03;12.20;99.90
77829;DHT22;67019;51.034;3.728;2024-02-14T14:05:31;12.10;99.90
77829;DHT22;67019;51.034;3.728;2024-02-14T14:07:58;12.10;99.90
77829;DHT22;67019;51.034;3.728;2024-02-14T14:10:27;12.30;99.90
77829;DHT22;67019;51.034;3.728;2024-02-14T14:12:55;12.40;99.90
77829;DHT22;67019;51.034;3.728;2024-02-14T14:15:23;12.00;99.90
77829;DHT22;67019;51.034;3.728;2024-02-14T14:17:52;12.30;99.90
77829;DHT22;67019;51.034;3.728;2024-02-14T14:20:21;12.30;99.90
77829;DHT22;67019;51.034;3.728;2024-02-14T14:22:49;12.50;99.90
77829;DHT22;67019;51.034;3.728;2024-02-14T14:25:16;12.50;99.90
77829;DHT22;67019;51.034;3.728;2024-02-14T14:27:44;12.60;99.90
77829;DHT22;67019;51.034;3.728;2024-02-14T14:30:12;12.60;99.90
77829;DHT22;67019;51.034;3.728;2024-02-14T14:32:40;12.50;99.90
77829;DHT22;67019;51.034;3.728;2024-02-14T14:35:07;12.50;99.90
77829;DHT22;67019;51.034;3.728;2024-02-14T14:37:36;12.50;99.90
77829;DHT22;67019;51.034;3.728;2024-02-14T14:40:05;12.50;99.90
77829;DHT22;67019;51.034;3.728;2024-02-14T14:42:34;12.50;99.90
77829;DHT22;67019;51.034;3.728;2024-02-14T14:45:02;12.40;99.90
77829;DHT22;67019;51.034;3.728;2024-02-14T14:47:30;12.70;99.90
77829;DHT22;67019;51.034;3.728;2024-02-14T14:49:59;12.50;99.90
77829;DHT22;67019;51.034;3.728;2024-02-14T14:52:26;12.60;99.90
77829;DHT22;67019;51.034;3.728;2024-02-14T14:54:54;12.40;99.90
77829;DHT22;67019;51.034;3.728;2024-02-14T14:57:22;12.40;99.90
77829;DHT22;67019;51.034;3.728;2024-02-14T14:59:50;12.60;99.90
77829;DHT22;67019;51.034;3.728;2024-02-14T15:02:17;12.60;99.90
77829;DHT22;67019;51.034;3.728;2024-02-14T15:04:45;12.40;99.90
77829;DHT22;67019;51.034;3.728;2024-02-14T15:07:13;12.80;99.90
77829;DHT22;67019;51.034;3.728;2024-02-14T15:09:42;12.80;99.90
77829;DHT22;67019;51.034;3.728;2024-02-14T15:12:10;12.90;99.90
77829;DHT22;67019;51.034;3.728;2024-02-14T15:14:37;12.80;99.90
77829;DHT22;67019;51.034;3.728;2024-02-14T15:17:05;12.80;99.90
77829;DHT22;67019;51.034;3.728;2024-02-14T15:19:33;12.70;99.90
77829;DHT22;67019;51.034;3.728;2024-02-14T15:22:02;12.70;99.90
77829;DHT22;67019;51.034;3.728;2024-02-14T15:24:29;12.70;99.90
77829;DHT22;67019;51.034;3.728;2024-02-14T15:26:59;12.70;99.90
77829;DHT22;67019;51.034;3.728;2024-02-14T15:29:26;12.80;99.90
77829;DHT22;67019;51.034;3.728;2024-02-14T15:32:12;12.70;99.90
77829;DHT22;67019;51.034;3.728;2024-02-14T15:34:58;12.70;99.90
77829;DHT22;67019;51.034;3.728;2024-02-14T15:37:25;12.60;99.90
77829;DHT22;67019;51.034;3.728;2024-02-14T15:39:53;12.50;99.90
77829;DHT22;67019;51.034;3.728;2024-02-14T15:42:20;12.60;99.90
77829;DHT22;67019;51.034;3.728;2024-02-14T15:44:49;12.60;99.90
77829;DHT22;67019;51.034;3.728;2024-02-14T15:47:16;12.80;99.90
77829;DHT22;67019;51.034;3.728;2024-02-14T15:49:44;12.80;99.90
77829;DHT22;67019;51.034;3.728;2024-02-14T15:52:12;12.70;99.90
77829;DHT22;67019;51.034;3.728;2024-02-14T15:54:40;12.50;99.90
77829;DHT22;67019;51.034;3.728;2024-02-14T15:57:09;12.70;99.90
77829;DHT22;67019;51.034;3.728;2024-02-14T15:59:37;12.60;99.90
77829;DHT22;67019;51.034;3.728;2024-02-14T16:02:07;12.60;99.90
77829;DHT22;67019;51.034;3.728;2024-02-14T16:04:34;12.70;99.90
77829;DHT22;67019;51.034;3.728;2024-02-14T16:07:02;12.60;99.90
77829;DHT22;67019;51.034;3.728;2024-02-14T16:09:30;12.60;99.90
77829;DHT22;67019;51.034;3.728;2024-02-14T16:11:57;12.60;99.90
77829;DHT22;67019;51.034;3.728;2024-02-14T16:14:25;12.30;99.90
77829;DHT22;67019;51.034;3.728;2024-02-14T16:16:54;12.50;99.90
77829;DHT22;67019;51.034;3.728;2024-02-14T16:19:21;12.60;99.90
77829;DHT22;67019;51.034;3.728;2024-02-14T16:21:49;12.50;99.90
77829;DHT22;67019;51.034;3.728;2024-02-14T16:24:16;12.50;99.90
77829;DHT22;67019;51.034;3.728;2024-02-14T16:26:44;12.50;99.90
77829;DHT22;67019;51.034;3.728;2024-02-14T16:29:13;12.50;99.90
77829;DHT22;67019;51.034;3.728;2024-02-14T16:31:40;12.50;99.90
77829;DHT22;67019;51.034;3.728;2024-02-14T16:34:09;12.30;99.90
77829;DHT22;67019;51.034;3.728;2024-02-14T16:36:38;12.50;99.90
77829;DHT22;67019;51.034;3.728;2024-02-14T16:39:06;12.10;99.90
77829;DHT22;67019;51.034;3.728;2024-02-14T16:41:34;12.30;99.90
77829;DHT22;67019;51.034;3.728;2024-02-14T16:44:04;12.10;99.90
77829;DHT22;67019;51.034;3.728;2024-02-14T16:46:32;12.40;99.90
77829;DHT22;67019;51.034;3.728;2024-02-14T16:49:00;12.50;99.90
77829;DHT22;67019;51.034;3.728;2024-02-14T16:53:55;12.30;99.90
77829;DHT22;67019;51.034;3.728;2024-02-14T16:56:23;12.40;99.90
77829;DHT22;67019;51.034;3.728;2024-02-14T16:58:52;12.50;99.90
77829;DHT22;67019;51.034;3.728;2024-02-14T17:01:20;12.60;99.90
77829;DHT22;67019;51.034;3.728;2024-02-14T17:03:48;12.60;99.90
77829;DHT22;67019;51.034;3.728;2024-02-14T17:06:17;12.50;99.90
77829;DHT22;67019;51.034;3.728;2024-02-14T17:08:45;12.50;99.90
77829;DHT22;67019;51.034;3.728;2024-02-14T17:11:14;12.50;99.90
77829;DHT22;67019;51.034;3.728;2024-02-14T17:13:43;12.50;99.90
77829;DHT22;67019;51.034;3.728;2024-02-14T17:16:10;12.50;99.90
77829;DHT22;67019;51.034;3.728;2024-02-14T17:18:38;12.50;99.90
77829;DHT22;67019;51.034;3.728;2024-02-14T17:21:07;12.60;99.90
77829;DHT22;67019;51.034;3.728;2024-02-14T17:23:35;12.60;99.90
77829;DHT22;67019;51.034;3.728;2024-02-14T17:26:03;12.50;99.90